Time;durP1;ratioP1;P1;durP2;ratioP2;P2;SDS_P1;SDS_P2;PMS_P1;PMS_P2;Temp;Humidity;BMP_temperature;BMP_pressure;BME280_temperature;BME280_humidity;BME280_pressure;Samples;Min_cycle;Max_cycle;Signal;HPM_P1;HPM_P2
2021/11/11 00:00:11;;;;;;;50.95;33.03;;;9.00;99.90;;;;;;5119947;28;20028;-63
2021/11/11 00:02:36;;;;;;;52.13;32.38;;;8.90;99.90;;;;;;5115072;28;20063;-63
2021/11/11 00:05:03;;;;;;;50.17;31.73;;;9.00;99.90;;;;;;5115895;28;20039;-63
2021/11/11 00:07:29;;;;;;;48.38;30.85;;;8.90;99.90;;;;;;5104906;28;20051;-63
2021/11/11 00:09:57;;;;;;;53.28;32.88;;;8.90;99.90;;;;;;5117291;28;20039;-63
2021/11/11 00:12:25;;;;;;;44.50;30.75;;;8.90;99.90;;;;;;5106874;28;20044;-63
2021/11/11 00:14:52;;;;;;;48.30;30.35;;;8.90;99.90;;;;;;5117316;28;20059;-63
2021/11/11 00:17:19;;;;;;;42.28;29.35;;;8.90;99.90;;;;;;5115715;28;20088;-63
2021/11/11 00:19:44;;;;;;;45.58;30.25;;;8.90;99.90;;;;;;5120033;28;20116;-63
2021/11/11 00:22:11;;;;;;;44.65;30.60;;;8.90;99.90;;;;;;5114241;28;20101;-63
2021/11/11 00:24:36;;;;;;;43.97;29.27;;;8.90;99.90;;;;;;5119675;28;20040;-63
2021/11/11 00:27:02;;;;;;;47.60;29.70;;;8.80;99.90;;;;;;5127498;28;20053;-63
2021/11/11 00:29:28;;;;;;;42.97;28.75;;;8.80;99.90;;;;;;5109767;28;20383;-63
2021/11/11 00:31:54;;;;;;;39.78;26.33;;;8.80;99.90;;;;;;5124481;28;20095;-63
2021/11/11 00:34:19;;;;;;;45.03;27.13;;;8.80;99.90;;;;;;5108906;28;20097;-63
2021/11/11 00:36:45;;;;;;;38.80;27.65;;;8.80;99.90;;;;;;5119934;28;20040;-63
2021/11/11 00:39:11;;;;;;;38.53;26.05;;;8.80;99.90;;;;;;5117640;28;20519;-63
2021/11/11 00:41:37;;;;;;;45.00;27.40;;;8.80;99.90;;;;;;5120764;28;20057;-63
2021/11/11 00:44:03;;;;;;;34.17;24.75;;;8.90;99.90;;;;;;5119472;28;20153;-63
2021/11/11 00:46:28;;;;;;;40.42;26.38;;;9.00;99.90;;;;;;5117264;28;20069;-63
2021/11/11 00:48:54;;;;;;;37.83;25.10;;;9.00;99.90;;;;;;5121356;28;20039;-63
2021/11/11 00:51:20;;;;;;;37.25;25.13;;;8.90;99.90;;;;;;5113998;28;20050;-63
2021/11/11 00:53:46;;;;;;;37.55;26.17;;;8.80;99.90;;;;;;5121446;28;20047;-63
2021/11/11 00:56:12;;;;;;;43.65;25.60;;;8.80;99.90;;;;;;5141184;27;20047;-63
2021/11/11 00:58:37;;;;;;;39.10;25.98;;;8.90;99.90;;;;;;5119895;28;20039;-63
2021/11/11 01:01:03;;;;;;;38.90;24.00;;;8.80;99.90;;;;;;5113193;28;20046;-63
2021/11/11 01:03:40;;;;;;;39.10;25.08;;;8.80;99.90;;;;;;5117572;28;20048;-63
2021/11/11 01:06:07;;;;;;;42.03;25.08;;;8.90;99.90;;;;;;5116289;28;20096;-63
2021/11/11 01:08:33;;;;;;;42.75;25.65;;;8.80;99.90;;;;;;5119992;28;20039;-63
2021/11/11 01:11:05;;;;;;;39.47;26.08;;;8.80;99.90;;;;;;5117115;28;20044;-63
2021/11/11 01:13:32;;;;;;;45.47;25.88;;;8.70;99.90;;;;;;5110302;28;20056;-63
2021/11/11 01:15:59;;;;;;;44.22;26.77;;;8.70;99.90;;;;;;5122513;28;20069;-63
2021/11/11 01:18:25;;;;;;;42.50;24.95;;;8.70;99.90;;;;;;5107331;28;20107;-63
2021/11/11 01:20:50;;;;;;;45.60;26.70;;;8.70;99.90;;;;;;5102975;28;20105;-63
2021/11/11 01:23:16;;;;;;;43.22;26.98;;;8.70;99.90;;;;;;5118159;28;20040;-63
2021/11/11 01:25:42;;;;;;;42.88;27.63;;;8.60;99.90;;;;;;5117763;28;20067;-63
2021/11/11 01:28:09;;;;;;;45.30;28.13;;;8.60;99.90;;;;;;5110443;28;20040;-63
2021/11/11 01:30:37;;;;;;;44.10;27.42;;;8.60;99.90;;;;;;5118225;28;20047;-63
2021/11/11 01:33:04;;;;;;;44.58;28.40;;;8.70;99.90;;;;;;5124240;28;20040;-63
2021/11/11 01:35:29;;;;;;;44.15;28.33;;;8.70;99.90;;;;;;5114331;28;20044;-63
2021/11/11 01:37:55;;;;;;;46.22;27.05;;;8.60;99.90;;;;;;5117532;28;20058;-63
2021/11/11 01:40:21;;;;;;;47.55;29.55;;;8.60;99.90;;;;;;5120433;28;20086;-63
2021/11/11 01:42:59;;;;;;;43.97;29.25;;;8.50;99.90;;;;;;5118955;28;20047;-63
2021/11/11 01:45:35;;;;;;;44.00;28.60;;;8.50;99.90;;;;;;5116598;28;20476;-63
2021/11/11 01:48:01;;;;;;;46.42;29.55;;;8.50;99.90;;;;;;5113191;28;20059;-63
2021/11/11 01:50:28;;;;;;;49.15;29.63;;;8.60;99.90;;;;;;5107628;28;20092;-63
2021/11/11 01:52:54;;;;;;;49.17;29.33;;;8.60;99.90;;;;;;5115670;28;20108;-63
2021/11/11 01:55:20;;;;;;;48.28;28.77;;;8.60;99.90;;;;;;5121728;28;20083;-63
2021/11/11 01:57:46;;;;;;;47.00;28.65;;;8.60;99.90;;;;;;5113648;28;20039;-63
2021/11/11 02:00:21;;;;;;;48.85;28.42;;;8.60;99.90;;;;;;5113173;28;20109;-63
2021/11/11 02:02:54;;;;;;;46.50;29.27;;;8.60;99.90;;;;;;5112227;28;20056;-63
2021/11/11 02:05:20;;;;;;;42.55;27.10;;;8.60;99.90;;;;;;5116512;28;20346;-63
2021/11/11 02:07:45;;;;;;;39.80;26.58;;;8.60;99.90;;;;;;5107554;28;20073;-63
2021/11/11 02:10:11;;;;;;;43.38;26.92;;;8.60;99.90;;;;;;5114617;28;20053;-63
2021/11/11 02:12:37;;;;;;;47.30;28.38;;;8.60;99.90;;;;;;5118906;28;20044;-63
2021/11/11 02:15:03;;;;;;;44.55;27.95;;;8.50;99.90;;;;;;5140636;27;20047;-63
2021/11/11 02:17:31;;;;;;;44.97;27.42;;;8.50;99.90;;;;;;5124773;28;20044;-63
2021/11/11 02:20:12;;;;;;;46.58;26.77;;;8.60;99.90;;;;;;5116275;28;20056;-63
2021/11/11 02:22:38;;;;;;;45.50;29.15;;;8.60;99.90;;;;;;5117983;28;20123;-63
2021/11/11 02:25:13;;;;;;;43.47;26.67;;;8.60;99.90;;;;;;5112575;28;20557;-63
2021/11/11 02:27:39;;;;;;;40.58;26.27;;;8.70;99.90;;;;;;5117924;28;20040;-63
2021/11/11 02:30:06;;;;;;;46.80;27.60;;;8.70;99.90;;;;;;5121565;28;20134;-63
2021/11/11 02:32:33;;;;;;;44.25;27.10;;;8.70;99.90;;;;;;5126130;28;20043;-63
2021/11/11 02:35:00;;;;;;;43.88;27.63;;;8.60;99.90;;;;;;5111533;28;20070;-63
2021/11/11 02:37:30;;;;;;;41.38;28.52;;;8.70;99.90;;;;;;5115781;28;20046;-63
2021/11/11 02:39:56;;;;;;;;;;;8.70;99.90;;;;;;5115571;28;20048;-63
2021/11/11 02:42:22;;;;;;;43.92;27.10;;;8.80;99.90;;;;;;5116306;28;19942;-63
2021/11/11 02:44:48;;;;;;;41.42;26.83;;;8.80;99.90;;;;;;5095254;28;20043;-63
2021/11/11 02:47:14;;;;;;;45.25;26.70;;;8.90;99.90;;;;;;5110339;28;20047;-63
2021/11/11 02:49:40;;;;;;;43.38;27.85;;;9.00;99.90;;;;;;5117552;28;20048;-63
2021/11/11 02:52:06;;;;;;;44.58;27.20;;;9.00;99.90;;;;;;5124106;28;20039;-63
2021/11/11 02:54:40;;;;;;;43.08;25.60;;;9.10;99.90;;;;;;5106624;28;20105;-63
2021/11/11 02:57:39;;;;;;;44.67;27.73;;;9.00;99.90;;;;;;5118443;28;20060;-63
2021/11/11 03:00:15;;;;;;;44.42;27.58;;;9.10;99.90;;;;;;5076620;28;20148;-63
2021/11/11 03:02:44;;;;;;;49.42;26.38;;;9.10;99.90;;;;;;5075810;28;20056;-63
2021/11/11 03:05:13;;;;;;;42.22;27.60;;;9.10;99.90;;;;;;5061550;28;20049;-63
2021/11/11 03:07:39;;;;;;;47.05;27.95;;;9.10;99.90;;;;;;5054921;28;20130;-63
2021/11/11 03:10:07;;;;;;;46.85;28.08;;;9.00;99.90;;;;;;5078069;28;20049;-63
2021/11/11 03:12:33;;;;;;;43.85;29.00;;;8.90;99.90;;;;;;5065544;28;20087;-63
2021/11/11 03:14:59;;;;;;;45.42;28.30;;;8.90;99.90;;;;;;5080228;28;20044;-63
2021/11/11 03:17:25;;;;;;;50.55;28.27;;;8.80;99.90;;;;;;5059695;28;20044;-63
2021/11/11 03:19:51;;;;;;;49.60;29.60;;;8.80;99.90;;;;;;5080080;28;20064;-63
2021/11/11 03:22:19;;;;;;;46.58;28.42;;;8.80;99.90;;;;;;5058420;28;20063;-63
2021/11/11 03:24:46;;;;;;;45.65;28.95;;;8.80;99.90;;;;;;5048351;28;20054;-63
2021/11/11 03:27:12;;;;;;;48.15;28.30;;;8.70;99.90;;;;;;5062072;28;20629;-63
2021/11/11 03:29:37;;;;;;;47.55;28.17;;;8.90;99.90;;;;;;5076842;28;20052;-63
2021/11/11 03:32:05;;;;;;;45.85;29.25;;;8.90;99.90;;;;;;5081570;28;20040;-63
2021/11/11 03:34:31;;;;;;;43.78;29.77;;;8.90;99.90;;;;;;5076301;28;20575;-63
2021/11/11 03:36:57;;;;;;;46.00;28.50;;;8.90;99.90;;;;;;5115302;28;20063;-63
2021/11/11 03:39:24;;;;;;;46.03;29.10;;;9.00;99.90;;;;;;5115098;28;20040;-63
2021/11/11 03:41:51;;;;;;;50.38;31.33;;;8.90;99.90;;;;;;5116767;28;20055;-63
2021/11/11 03:44:19;;;;;;;41.17;28.77;;;8.90;99.90;;;;;;5104665;28;20048;-63
2021/11/11 03:46:47;;;;;;;46.13;29.65;;;8.90;99.90;;;;;;5116282;28;20122;-63
2021/11/11 03:49:13;;;;;;;47.53;30.17;;;8.80;99.90;;;;;;5112912;28;20040;-63
2021/11/11 03:51:40;;;;;;;45.88;30.90;;;8.80;99.90;;;;;;5115950;28;20032;-63
2021/11/11 03:54:06;;;;;;;50.30;30.52;;;8.80;99.90;;;;;;5117429;28;20068;-63
2021/11/11 03:56:36;;;;;;;51.58;30.23;;;8.80;99.90;;;;;;5111530;28;20046;-63
2021/11/11 03:59:02;;;;;;;47.70;29.58;;;8.70;99.90;;;;;;5121532;28;20075;-63
2021/11/11 04:01:28;;;;;;;49.50;30.02;;;8.70;99.90;;;;;;5116540;28;20047;-63
2021/11/11 04:03:54;;;;;;;52.47;30.90;;;8.70;99.90;;;;;;5121915;28;20415;-63
2021/11/11 04:06:20;;;;;;;50.55;30.10;;;8.70;99.90;;;;;;5118519;28;20035;-63
2021/11/11 04:08:46;;;;;;;44.38;28.98;;;8.70;99.90;;;;;;5111260;28;20123;-63
2021/11/11 04:11:12;;;;;;;53.85;29.75;;;8.70;99.90;;;;;;5103240;28;20043;-63
2021/11/11 04:13:38;;;;;;;47.53;30.80;;;8.70;99.90;;;;;;5120831;28;20040;-63
2021/11/11 04:16:04;;;;;;;45.67;28.67;;;8.60;99.90;;;;;;5121361;28;20088;-63
2021/11/11 04:18:30;;;;;;;48.67;30.52;;;8.70;99.90;;;;;;5118674;28;20055;-63
2021/11/11 04:20:57;;;;;;;45.25;30.77;;;8.70;99.90;;;;;;5123508;28;20056;-63
2021/11/11 04:23:24;;;;;;;50.08;29.77;;;8.70;99.90;;;;;;5115177;28;20400;-63
2021/11/11 04:28:31;;;;;;;55.10;31.33;;;8.80;99.90;;;;;;5121663;28;20053;-63
2021/11/11 04:31:01;;;;;;;50.22;29.58;;;8.80;99.90;;;;;;5122049;28;20048;-63
2021/11/11 04:33:28;;;;;;;45.33;28.85;;;8.70;99.90;;;;;;5119202;28;20063;-63
2021/11/11 04:36:00;;;;;;;45.47;28.90;;;8.80;99.90;;;;;;5118157;28;20044;-63
2021/11/11 04:38:57;;;;;;;50.60;28.05;;;8.90;99.90;;;;;;5111694;28;20068;-63
2021/11/11 04:41:52;;;;;;;47.75;27.95;;;8.90;99.90;;;;;;5119629;28;20047;-63
2021/11/11 05:00:28;;;;;;;45.85;28.77;;;8.80;99.90;;;;;;5120008;28;20069;-63
2021/11/11 05:05:20;;;;;;;50.95;29.17;;;8.80;99.90;;;;;;5113161;28;20059;-63
2021/11/11 05:07:46;;;;;;;52.60;30.60;;;8.80;99.90;;;;;;5117695;28;20056;-63
2021/11/11 05:10:14;;;;;;;50.45;30.65;;;8.70;99.90;;;;;;5111105;28;20108;-63
2021/11/11 05:12:40;;;;;;;53.20;31.00;;;8.60;99.90;;;;;;5121197;28;20040;-63
2021/11/11 05:15:07;;;;;;;55.90;31.05;;;8.60;99.90;;;;;;5116816;28;20051;-63
2021/11/11 05:17:33;;;;;;;48.78;30.13;;;8.60;99.90;;;;;;5120134;28;20145;-63
2021/11/11 05:19:59;;;;;;;53.58;30.27;;;8.70;99.90;;;;;;5119605;28;20056;-63
2021/11/11 05:22:25;;;;;;;47.95;30.50;;;8.70;99.90;;;;;;5117218;28;20047;-63
2021/11/11 05:24:50;;;;;;;50.60;30.70;;;8.70;99.90;;;;;;5124272;28;20042;-63
2021/11/11 05:27:19;;;;;;;58.00;32.47;;;8.70;99.90;;;;;;5109428;28;20040;-63
2021/11/11 05:29:45;;;;;;;55.05;31.58;;;8.70;99.90;;;;;;5125220;28;20069;-63
2021/11/11 05:32:11;;;;;;;56.55;31.50;;;8.70;99.90;;;;;;5142444;27;20055;-63
2021/11/11 05:34:37;;;;;;;55.00;32.20;;;8.80;99.90;;;;;;5113588;28;20036;-63
2021/11/11 05:37:04;;;;;;;51.72;32.58;;;8.90;99.90;;;;;;5119600;28;20048;-63
2021/11/11 05:39:30;;;;;;;54.92;34.45;;;8.80;99.90;;;;;;5123815;28;20577;-63
2021/11/11 05:41:56;;;;;;;60.90;34.40;;;8.80;99.90;;;;;;5120536;28;20056;-63
2021/11/11 05:44:21;;;;;;;51.05;33.20;;;8.90;99.90;;;;;;5110447;28;20048;-63
2021/11/11 05:46:47;;;;;;;54.17;33.70;;;8.90;99.90;;;;;;5119410;28;20036;-63
2021/11/11 05:49:13;;;;;;;59.58;35.25;;;8.90;99.90;;;;;;5115452;28;20035;-63
2021/11/11 05:51:38;;;;;;;57.80;35.47;;;8.80;99.90;;;;;;5091587;28;20462;-63
2021/11/11 05:54:04;;;;;;;55.83;33.35;;;8.80;99.90;;;;;;5115913;28;20067;-63
2021/11/11 05:56:30;;;;;;;57.17;36.03;;;8.80;99.90;;;;;;5113541;28;20044;-63
2021/11/11 05:58:56;;;;;;;57.40;34.35;;;8.80;99.90;;;;;;5118013;28;20031;-63
2021/11/11 06:01:23;;;;;;;56.25;34.30;;;8.80;99.90;;;;;;5110974;28;20047;-63
2021/11/11 06:03:49;;;;;;;56.03;34.30;;;8.80;99.90;;;;;;5075382;28;20301;-63
2021/11/11 06:06:14;;;;;;;53.33;34.75;;;8.90;99.90;;;;;;5115862;28;20431;-63
2021/11/11 06:08:40;;;;;;;56.72;34.60;;;8.90;99.90;;;;;;5116520;28;20071;-63
2021/11/11 06:11:06;;;;;;;58.25;33.20;;;8.80;99.90;;;;;;5111005;28;20058;-63
2021/11/11 06:13:32;;;;;;;56.85;35.35;;;8.70;99.90;;;;;;5091437;28;20131;-63
2021/11/11 06:15:57;;;;;;;62.35;35.67;;;8.70;99.90;;;;;;5076838;28;20056;-63
2021/11/11 06:18:23;;;;;;;57.33;34.15;;;8.60;99.90;;;;;;5058359;28;20572;-63
2021/11/11 06:20:57;;;;;;;55.83;34.90;;;8.60;99.90;;;;;;5089637;28;20069;-64
2021/11/11 06:23:24;;;;;;;57.00;33.05;;;8.70;99.90;;;;;;5081525;28;20113;-64
2021/11/11 06:25:50;;;;;;;54.92;33.10;;;8.60;99.90;;;;;;5073276;28;20154;-64
2021/11/11 06:28:16;;;;;;;58.58;33.70;;;8.60;99.90;;;;;;5112261;28;20079;-64
2021/11/11 06:30:41;;;;;;;53.03;32.13;;;8.70;99.90;;;;;;5113348;28;20050;-64
2021/11/11 06:33:07;;;;;;;54.15;31.33;;;8.80;99.90;;;;;;5115095;28;20388;-65
2021/11/11 06:35:33;;;;;;;54.08;32.88;;;8.80;99.90;;;;;;5089024;28;20248;-64
2021/11/11 06:37:59;;;;;;;53.88;32.15;;;8.80;99.90;;;;;;5097710;28;20047;-64
2021/11/11 06:40:27;;;;;;;53.83;32.63;;;8.80;99.90;;;;;;5095042;28;20543;-63
2021/11/11 06:42:55;;;;;;;52.30;31.85;;;8.90;99.90;;;;;;5110848;28;20047;-64
2021/11/11 06:45:21;;;;;;;55.55;31.60;;;8.80;99.90;;;;;;5095176;28;20039;-64
2021/11/11 06:47:47;;;;;;;51.70;32.10;;;8.90;99.90;;;;;;5112060;28;20085;-65
2021/11/11 06:50:14;;;;;;;56.28;33.22;;;8.90;99.90;;;;;;5096081;28;20675;-64
2021/11/11 06:52:40;;;;;;;53.28;33.50;;;8.80;99.90;;;;;;5110916;28;20031;-64
2021/11/11 06:55:07;;;;;;;57.50;33.10;;;8.80;99.90;;;;;;5114545;27;20058;-64
2021/11/11 06:57:34;;;;;;;56.80;33.28;;;8.90;99.90;;;;;;5130531;27;20086;-64
2021/11/11 07:00:01;;;;;;;60.78;32.40;;;9.00;99.90;;;;;;5098445;28;20493;-63
2021/11/11 07:02:26;;;;;;;58.25;33.28;;;9.00;99.90;;;;;;5114365;28;20922;-63
2021/11/11 07:04:55;;;;;;;55.45;32.92;;;9.00;99.90;;;;;;5105214;27;20116;-63
2021/11/11 07:07:20;;;;;;;56.15;31.58;;;9.00;99.90;;;;;;5122028;27;20134;-64
2021/11/11 07:09:46;;;;;;;57.40;31.88;;;9.10;99.90;;;;;;5114093;27;20492;-64
2021/11/11 07:12:12;;;;;;;61.33;31.33;;;9.10;99.90;;;;;;5114462;28;20043;-63
2021/11/11 07:14:41;;;;;;;54.83;32.40;;;9.20;99.90;;;;;;5099643;28;20134;-63
2021/11/11 07:17:07;;;;;;;53.00;31.02;;;9.10;99.90;;;;;;5107674;28;20048;-63
2021/11/11 07:19:33;;;;;;;57.85;35.20;;;9.20;99.90;;;;;;5094240;28;20052;-63
2021/11/11 07:22:01;;;;;;;55.65;31.33;;;9.10;99.90;;;;;;5115359;28;20047;-63
2021/11/11 07:24:27;;;;;;;54.00;32.20;;;9.10;99.90;;;;;;5115730;28;20059;-63
2021/11/11 07:26:53;;;;;;;59.55;31.75;;;9.20;99.90;;;;;;5093368;28;20040;-63
2021/11/11 07:29:19;;;;;;;57.60;31.85;;;9.10;99.90;;;;;;5100195;28;20032;-63
2021/11/11 07:31:45;;;;;;;55.33;30.23;;;9.20;99.90;;;;;;5099211;28;20059;-63
2021/11/11 07:34:11;;;;;;;60.13;31.10;;;9.20;99.90;;;;;;5097274;28;20062;-63
2021/11/11 07:36:38;;;;;;;47.13;30.02;;;9.20;99.90;;;;;;5097602;28;20127;-63
2021/11/11 07:39:05;;;;;;;53.80;30.65;;;9.10;99.90;;;;;;5100731;28;20052;-63
2021/11/11 07:41:31;;;;;;;51.42;30.67;;;9.10;99.90;;;;;;5119805;28;20105;-64
2021/11/11 07:43:56;;;;;;;56.70;30.92;;;9.10;99.90;;;;;;5093185;28;20076;-64
2021/11/11 07:46:22;;;;;;;54.90;30.77;;;9.10;99.90;;;;;;5093974;28;20603;-65
2021/11/11 07:48:48;;;;;;;50.63;30.80;;;9.10;99.90;;;;;;5096059;28;20115;-63
2021/11/11 07:51:13;;;;;;;51.78;30.75;;;9.10;99.90;;;;;;5101263;28;20446;-68
2021/11/11 07:53:39;;;;;;;56.13;32.33;;;9.20;99.90;;;;;;5076535;28;20127;-64
2021/11/11 07:56:05;;;;;;;56.92;32.20;;;9.10;99.90;;;;;;5038037;28;20051;-64
2021/11/11 07:58:31;;;;;;;59.45;33.95;;;9.10;99.90;;;;;;5070610;28;20478;-65
2021/11/11 08:00:57;;;;;;;59.22;32.08;;;9.00;99.90;;;;;;5093861;28;20047;-64
2021/11/11 08:03:23;;;;;;;58.10;30.77;;;9.00;99.90;;;;;;5088764;28;20184;-64
2021/11/11 08:05:49;;;;;;;51.10;30.85;;;9.10;99.90;;;;;;5085334;28;20104;-64
2021/11/11 08:08:15;;;;;;;49.38;30.65;;;9.20;99.90;;;;;;5063096;28;20041;-65
2021/11/11 08:10:40;;;;;;;51.05;30.17;;;9.20;99.90;;;;;;5096708;28;20044;-63
2021/11/11 08:13:07;;;;;;;47.50;29.67;;;9.40;99.90;;;;;;5096294;28;20508;-65
2021/11/11 08:15:33;;;;;;;51.15;30.25;;;9.40;99.90;;;;;;5060366;28;20052;-65
2021/11/11 08:17:59;;;;;;;56.60;33.17;;;9.40;99.90;;;;;;5097205;28;20074;-66
2021/11/11 08:20:25;;;;;;;51.20;31.55;;;9.20;99.90;;;;;;5089002;28;20117;-64
2021/11/11 08:22:51;;;;;;;49.88;29.35;;;9.20;99.90;;;;;;5098911;28;20044;-65
2021/11/11 08:25:19;;;;;;;54.35;32.10;;;9.30;99.90;;;;;;5079863;28;20546;-65
2021/11/11 08:27:45;;;;;;;51.03;31.45;;;9.20;99.90;;;;;;5090949;28;20087;-65
2021/11/11 08:30:14;;;;;;;59.28;31.00;;;9.30;99.90;;;;;;5086784;28;20054;-65
2021/11/11 08:32:45;;;;;;;56.95;32.55;;;9.30;99.90;;;;;;5089963;28;20095;-65
2021/11/11 08:35:13;;;;;;;51.72;32.90;;;9.30;99.90;;;;;;5074840;28;20159;-64
2021/11/11 08:37:40;;;;;;;50.83;31.15;;;9.30;99.90;;;;;;5095298;28;20040;-64
2021/11/11 08:40:07;;;;;;;54.72;30.95;;;9.30;99.90;;;;;;5102184;27;20056;-62
2021/11/11 08:42:33;;;;;;;54.15;32.97;;;9.20;99.90;;;;;;5104482;28;20048;-62
2021/11/11 08:45:00;;;;;;;51.70;31.45;;;9.20;99.90;;;;;;5090211;28;20043;-65
2021/11/11 08:47:26;;;;;;;50.28;31.98;;;9.20;99.90;;;;;;5098523;28;20071;-64
2021/11/11 08:49:53;;;;;;;50.65;31.83;;;9.30;99.90;;;;;;5098350;28;20052;-64
2021/11/11 08:52:20;;;;;;;49.92;31.00;;;9.30;99.90;;;;;;5088846;28;20088;-64
2021/11/11 08:54:46;;;;;;;50.47;30.58;;;9.30;99.90;;;;;;5099081;28;20579;-64
2021/11/11 08:57:13;;;;;;;46.05;29.50;;;9.30;99.90;;;;;;5098056;28;20130;-65
2021/11/11 08:59:39;;;;;;;50.95;30.92;;;9.30;99.90;;;;;;5090316;28;20044;-65
2021/11/11 09:02:05;;;;;;;51.75;31.60;;;9.30;99.90;;;;;;5060773;28;20055;-65
2021/11/11 09:04:31;;;;;;;47.25;31.23;;;9.40;99.90;;;;;;5089159;28;20066;-65
2021/11/11 09:06:59;;;;;;;52.65;32.10;;;9.40;99.90;;;;;;5102764;28;20099;-64
2021/11/11 09:09:25;;;;;;;48.38;30.42;;;9.40;99.90;;;;;;5121647;27;20047;-64
2021/11/11 09:11:51;;;;;;;52.42;31.90;;;9.30;99.90;;;;;;5099602;28;20055;-64
2021/11/11 09:14:17;;;;;;;53.10;32.53;;;9.40;99.90;;;;;;5109986;27;20039;-65
2021/11/11 09:16:43;;;;;;;49.90;32.92;;;9.50;99.90;;;;;;5109634;28;20043;-64
2021/11/11 09:19:10;;;;;;;51.47;32.28;;;9.50;99.90;;;;;;5109976;27;20051;-67
2021/11/11 09:21:40;;;;;;;52.75;33.00;;;9.50;99.90;;;;;;5118197;28;20066;-64
2021/11/11 09:24:07;;;;;;;52.22;31.75;;;9.50;99.90;;;;;;5110814;27;20617;-64
2021/11/11 09:26:33;;;;;;;48.55;31.58;;;9.60;99.90;;;;;;5078944;28;20415;-65
2021/11/11 09:29:00;;;;;;;52.28;32.45;;;9.60;99.90;;;;;;5103806;27;20099;-64
2021/11/11 09:31:26;;;;;;;51.22;32.58;;;9.60;99.90;;;;;;5101223;28;20040;-65
2021/11/11 09:33:52;;;;;;;52.03;33.50;;;9.70;99.90;;;;;;5112030;27;20362;-65
2021/11/11 09:36:19;;;;;;;56.75;32.75;;;9.60;99.90;;;;;;5106831;28;20397;-65
2021/11/11 09:38:46;;;;;;;57.58;33.60;;;9.70;99.90;;;;;;5103651;27;20036;-65
2021/11/11 09:41:14;;;;;;;54.42;34.63;;;9.70;99.90;;;;;;5105483;28;20078;-66
2021/11/11 09:43:40;;;;;;;56.53;36.88;;;9.80;99.90;;;;;;5117526;27;20048;-65
2021/11/11 09:46:09;;;;;;;53.85;34.33;;;9.80;99.90;;;;;;5089847;28;20071;-65
2021/11/11 09:48:36;;;;;;;58.97;37.78;;;9.80;99.90;;;;;;5097914;28;20083;-65
2021/11/11 09:51:04;;;;;;;56.95;35.65;;;9.80;99.90;;;;;;5085034;28;20048;-65
2021/11/11 09:53:31;;;;;;;61.65;37.17;;;9.80;99.90;;;;;;5078496;28;20063;-65
2021/11/11 09:58:42;;;;;;;59.33;36.20;;;9.80;99.90;;;;;;5098031;28;20082;-65
2021/11/11 10:01:28;;;;;;;57.15;37.08;;;9.90;99.90;;;;;;5054568;28;20137;-65
2021/11/11 10:03:54;;;;;;;58.65;36.28;;;9.90;99.90;;;;;;5085397;28;20051;-66
2021/11/11 10:06:24;;;;;;;66.53;39.20;;;10.00;99.90;;;;;;5112590;27;20064;-65
2021/11/11 10:09:09;;;;;;;65.78;38.65;;;9.90;99.90;;;;;;5091712;28;20149;-66
2021/11/11 10:11:38;;;;;;;62.55;39.40;;;9.90;99.90;;;;;;5067725;28;20052;-66
2021/11/11 10:14:08;;;;;;;63.25;40.03;;;9.90;99.90;;;;;;5089709;28;20043;-65
2021/11/11 10:16:36;;;;;;;70.75;41.50;;;10.00;99.90;;;;;;5081040;28;20113;-64
2021/11/11 10:19:04;;;;;;;66.82;40.75;;;9.90;99.90;;;;;;5085893;28;20056;-65
2021/11/11 10:21:43;;;;;;;60.40;41.00;;;9.90;99.90;;;;;;5098072;28;20040;-65
2021/11/11 10:24:30;;;;;;;67.32;40.03;;;10.00;99.90;;;;;;5088887;28;20048;-65
2021/11/11 10:27:28;;;;;;;71.43;42.13;;;9.90;99.90;;;;;;5076474;28;20063;-65
2021/11/11 10:30:15;;;;;;;64.22;39.65;;;10.00;99.90;;;;;;5087769;28;20148;-64
2021/11/11 10:32:46;;;;;;;66.35;42.00;;;10.00;99.90;;;;;;5086666;28;20048;-64
2021/11/11 10:35:18;;;;;;;65.13;40.03;;;10.00;99.90;;;;;;5083046;28;20531;-64
2021/11/11 10:37:49;;;;;;;66.35;41.65;;;10.00;99.90;;;;;;5088806;28;20048;-68
2021/11/11 10:40:25;;;;;;;58.20;39.33;;;10.00;99.90;;;;;;5090917;28;20051;-63
2021/11/11 10:42:54;;;;;;;65.07;38.38;;;10.10;99.90;;;;;;5092733;28;20380;-64
2021/11/11 10:45:25;;;;;;;64.82;40.88;;;10.20;99.90;;;;;;5089131;28;20063;-64
2021/11/11 10:47:54;;;;;;;65.18;41.08;;;10.20;99.90;;;;;;5114061;27;20084;-64
2021/11/11 10:50:29;;;;;;;69.15;41.53;;;10.10;99.90;;;;;;5110508;27;20085;-64
2021/11/11 10:52:57;;;;;;;60.70;41.05;;;10.20;99.90;;;;;;5097187;28;20605;-64
2021/11/11 10:55:37;;;;;;;64.22;40.88;;;10.20;99.90;;;;;;5089786;28;20052;-64
2021/11/11 10:58:02;;;;;;;60.63;38.15;;;10.20;99.90;;;;;;5099525;28;20047;-64
2021/11/11 11:00:43;;;;;;;67.22;42.33;;;10.20;99.90;;;;;;5070837;28;20372;-64
2021/11/11 11:03:13;;;;;;;69.95;42.38;;;10.20;99.90;;;;;;5091931;28;20108;-64
2021/11/11 11:05:51;;;;;;;63.28;41.22;;;10.20;99.90;;;;;;5101262;27;20059;-64
2021/11/11 11:08:20;;;;;;;59.95;39.03;;;10.20;99.90;;;;;;5079558;28;20075;-65
2021/11/11 11:10:49;;;;;;;64.07;40.45;;;10.20;99.90;;;;;;5097378;27;20055;-65
2021/11/11 11:13:26;;;;;;;63.40;41.42;;;10.20;99.90;;;;;;5097314;28;20119;-66
2021/11/11 11:16:06;;;;;;;67.70;39.05;;;10.10;99.90;;;;;;5114030;27;20055;-63
2021/11/11 11:18:38;;;;;;;67.40;39.92;;;10.20;99.90;;;;;;5088463;28;20078;-66
2021/11/11 11:21:17;;;;;;;71.10;41.65;;;10.20;99.90;;;;;;5084655;28;20066;-64
2021/11/11 11:23:55;;;;;;;65.93;38.83;;;10.20;99.90;;;;;;5070891;28;20125;-64
2021/11/11 11:26:27;;;;;;;61.10;38.05;;;10.30;99.90;;;;;;5071060;28;20327;-64
2021/11/11 11:29:09;;;;;;;59.25;39.25;;;10.20;99.90;;;;;;5080237;28;20068;-64
2021/11/11 11:31:43;;;;;;;62.70;40.05;;;10.20;99.90;;;;;;5108522;27;20122;-64
2021/11/11 11:34:20;;;;;;;63.95;40.78;;;10.30;99.90;;;;;;5107948;28;20079;-64
2021/11/11 11:36:50;;;;;;;63.70;39.28;;;10.30;99.90;;;;;;5107401;28;20334;-66
2021/11/11 11:39:37;;;;;;;65.93;39.55;;;10.40;99.90;;;;;;5118916;28;20050;-65
2021/11/11 11:42:10;;;;;;;67.28;43.13;;;10.30;99.90;;;;;;5130174;28;20051;-64
2021/11/11 11:44:41;;;;;;;64.53;40.63;;;10.30;99.90;;;;;;5119757;28;20081;-65
2021/11/11 11:47:14;;;;;;;72.20;44.13;;;10.40;99.90;;;;;;5113255;28;20039;-64
2021/11/11 11:49:43;;;;;;;73.43;43.40;;;10.30;99.90;;;;;;5123011;28;20055;-65
2021/11/11 11:52:11;;;;;;;73.22;41.45;;;10.30;99.90;;;;;;5131867;28;20054;-64
2021/11/11 11:55:03;;;;;;;72.35;43.70;;;10.30;99.90;;;;;;5097775;28;20056;-63
2021/11/11 12:05:48;;;;;;;73.03;43.45;;;10.30;99.90;;;;;;5108831;28;20059;-66
2021/11/11 12:17:03;;;;;;;99.07;50.97;;;10.40;99.90;;;;;;5113255;27;20055;-65
2021/11/11 12:39:56;;;;;;;106.90;55.13;;;10.50;99.90;;;;;;5108364;27;20067;-65
2021/11/11 12:42:42;;;;;;;99.63;52.43;;;10.60;99.90;;;;;;5120401;27;20043;-65
2021/11/11 12:45:22;;;;;;;100.20;52.63;;;10.60;99.90;;;;;;5111235;27;20047;-65
2021/11/11 12:47:58;;;;;;;93.60;49.70;;;10.60;99.90;;;;;;5117072;28;20040;-64
2021/11/11 12:50:30;;;;;;;102.18;51.17;;;10.70;99.90;;;;;;5102354;27;20043;-65
2021/11/11 12:53:09;;;;;;;97.82;50.95;;;10.70;99.90;;;;;;5112006;27;20044;-65
2021/11/11 12:55:35;;;;;;;88.07;47.53;;;10.80;99.90;;;;;;5108839;27;20460;-65
2021/11/11 12:58:03;;;;;;;100.20;49.70;;;10.80;99.90;;;;;;5113284;27;20031;-65
2021/11/11 13:00:50;;;;;;;93.63;49.13;;;10.80;99.90;;;;;;5127431;27;20063;-64
2021/11/11 13:03:18;;;;;;;91.07;48.78;;;10.80;99.90;;;;;;5121415;27;20047;-64
2021/11/11 13:05:56;;;;;;;82.53;44.42;;;10.80;99.90;;;;;;5109518;27;20137;-64
2021/11/11 13:08:44;;;;;;;97.20;48.72;;;10.90;99.90;;;;;;5129830;27;20055;-64
2021/11/11 13:11:12;;;;;;;94.78;50.20;;;10.90;99.90;;;;;;5110867;27;20406;-64
2021/11/11 13:13:39;;;;;;;90.78;49.47;;;11.00;99.90;;;;;;5118720;27;20083;-65
2021/11/11 13:16:14;;;;;;;85.07;46.47;;;11.00;99.90;;;;;;5096094;28;20044;-64
2021/11/11 13:18:44;;;;;;;97.93;49.83;;;11.00;99.90;;;;;;5110682;27;20051;-65
2021/11/11 13:21:20;;;;;;;94.53;50.78;;;10.90;99.90;;;;;;5101595;28;20043;-64
2021/11/11 13:24:18;;;;;;;81.95;46.05;;;10.80;99.90;;;;;;5113594;28;20263;-64
2021/11/11 14:00:46;;;;;;;74.65;44.90;;;11.00;99.90;;;;;;5104750;27;20075;-65
2021/11/11 16:20:23;;;;;;;83.85;46.13;;;10.20;99.90;;;;;;5039283;28;20053;-65
2021/11/11 16:23:02;;;;;;;78.78;45.45;;;10.20;99.90;;;;;;5026846;28;20064;-64
2021/11/11 16:25:45;;;;;;;88.38;46.20;;;10.10;99.90;;;;;;5027930;28;20064;-63
2021/11/11 16:28:11;;;;;;;79.63;46.35;;;10.20;99.90;;;;;;5046619;28;20180;-63
2021/11/11 16:30:36;;;;;;;83.85;44.25;;;10.10;99.90;;;;;;5037279;28;20070;-64
2021/11/11 16:33:02;;;;;;;77.47;43.45;;;10.20;99.90;;;;;;5128879;27;20491;-64
2021/11/11 16:35:28;;;;;;;76.60;43.97;;;10.30;99.90;;;;;;5103162;28;20047;-64